Time;durP1;ratioP1;P1;durP2;ratioP2;P2;SDS_P1;SDS_P2;PMS_P1;PMS_P2;Temp;Humidity;BMP_temperature;BMP_pressure;BME280_temperature;BME280_humidity;BME280_pressure;Samples;Min_cycle;Max_cycle;Signal;HPM_P1;HPM_P2
2020/12/21 00:04:46;;;;;;;47.60;21.98;;;3.90;99.90;;;;;;20839191;28;19932;-85
2020/12/21 00:14:47;;;;;;;51.07;23.63;;;3.70;99.90;;;;;;20824841;28;20075;-84
2020/12/21 00:24:48;;;;;;;48.73;23.20;;;3.40;99.90;;;;;;20864938;28;20505;-82
2020/12/21 00:34:49;;;;;;;59.13;24.03;;;3.30;99.90;;;;;;20928430;28;20063;-82
2020/12/21 00:44:50;;;;;;;51.20;22.67;;;3.70;99.90;;;;;;20888329;28;20346;-84
2020/12/21 00:54:50;;;;;;;54.33;24.40;;;3.70;99.90;;;;;;20891562;28;20037;-83
2020/12/21 01:04:51;;;;;;;53.70;25.10;;;3.60;99.90;;;;;;20921840;28;20055;-82
2020/12/21 01:14:52;;;;;;;65.53;24.87;;;3.80;99.90;;;;;;20889278;28;20104;-80
2020/12/21 01:24:53;;;;;;;47.87;23.77;;;3.80;99.90;;;;;;20884340;28;20048;-83
2020/12/21 01:34:54;;;;;;;45.70;21.17;;;3.90;99.90;;;;;;20824934;28;20411;-84
2020/12/21 01:44:55;;;;;;;47.37;20.67;;;4.00;99.90;;;;;;20823644;28;20113;-84
2020/12/21 01:54:56;;;;;;;60.50;24.30;;;3.90;99.90;;;;;;20853074;28;20026;-84
2020/12/21 02:04:57;;;;;;;46.63;21.85;;;4.00;99.90;;;;;;20822413;28;20044;-81
2020/12/21 02:14:58;;;;;;;;;;;4.00;99.90;;;;;;20841750;28;20045;-82
2020/12/21 02:24:59;;;;;;;49.73;22.33;;;4.00;99.90;;;;;;20849151;28;19913;-84
2020/12/21 02:35:00;;;;;;;48.23;21.23;;;4.10;99.90;;;;;;20912197;28;20806;-84
2020/12/21 02:45:01;;;;;;;44.23;22.63;;;4.10;99.90;;;;;;20911759;28;20040;-82
2020/12/21 02:55:03;;;;;;;;;;;4.10;99.90;;;;;;20897442;28;20029;-82
2020/12/21 03:05:04;;;;;;;54.80;25.70;;;4.00;99.90;;;;;;20912233;28;19909;-82
2020/12/21 03:15:05;;;;;;;71.47;25.65;;;4.10;99.90;;;;;;20896813;28;20041;-84
2020/12/21 03:25:06;;;;;;;67.70;23.40;;;4.10;99.90;;;;;;20866234;28;20033;-81
2020/12/21 03:35:07;;;;;;;97.78;28.20;;;4.30;99.90;;;;;;20827682;28;20029;-82
2020/12/21 03:45:08;;;;;;;80.03;26.83;;;4.30;99.90;;;;;;20827545;28;20052;-82
2020/12/21 03:55:09;;;;;;;83.27;25.60;;;4.30;99.90;;;;;;20829760;28;20547;-82
2020/12/21 04:05:10;;;;;;;72.67;25.73;;;4.30;99.90;;;;;;20814000;28;20025;-83
2020/12/21 04:15:11;;;;;;;83.60;27.83;;;4.40;99.90;;;;;;20885142;28;20033;-84
2020/12/21 04:25:12;;;;;;;68.60;26.00;;;4.40;99.90;;;;;;20874065;28;20048;-84
2020/12/21 04:35:13;;;;;;;69.93;25.60;;;4.50;99.90;;;;;;20868777;28;20033;-84
2020/12/21 04:45:15;;;;;;;66.57;23.60;;;4.50;99.90;;;;;;20862334;28;20036;-85
2020/12/21 04:55:17;;;;;;;72.72;27.83;;;4.60;99.90;;;;;;20920585;28;20073;-83
2020/12/21 05:05:34;;;;;;;98.90;29.20;;;4.40;99.90;;;;;;20863669;28;20029;-82
2020/12/21 05:15:36;;;;;;;67.35;25.52;;;4.50;99.90;;;;;;20827104;28;20037;-80
2020/12/21 05:25:36;;;;;;;101.03;28.90;;;4.50;99.90;;;;;;20801632;22;20060;-74
2020/12/21 05:35:37;;;;;;;85.37;29.20;;;4.60;99.90;;;;;;20838759;28;20026;-74
2020/12/21 05:45:38;;;;;;;103.83;31.13;;;4.60;99.90;;;;;;20801236;28;20048;-74
2020/12/21 05:55:39;;;;;;;97.33;28.60;;;4.50;99.90;;;;;;20772075;28;20026;-74
2020/12/21 06:05:45;;;;;;;110.50;29.90;;;4.50;99.90;;;;;;20754500;28;20029;-74
2020/12/21 06:15:48;;;;;;;125.40;31.92;;;4.50;99.90;;;;;;20753690;28;20542;-74
2020/12/21 06:25:48;;;;;;;120.43;30.10;;;4.50;99.90;;;;;;20782649;28;20055;-74
2020/12/21 06:35:59;;;;;;;124.47;29.93;;;4.50;99.90;;;;;;20792665;28;20113;-75
2020/12/21 06:46:00;;;;;;;100.63;28.27;;;4.60;99.90;;;;;;20718327;28;20034;-75
2020/12/21 06:56:11;;;;;;;133.17;33.27;;;4.60;99.90;;;;;;20744263;28;20518;-75
2020/12/21 07:06:13;;;;;;;127.20;32.73;;;4.60;99.90;;;;;;20750121;28;20037;-75
2020/12/21 07:16:17;;;;;;;;;;;4.60;99.90;;;;;;20749606;28;20038;-74
2020/12/21 07:26:18;;;;;;;107.38;30.17;;;4.60;99.90;;;;;;20782702;28;19920;-74
2020/12/21 07:36:26;;;;;;;111.40;31.27;;;4.60;99.90;;;;;;20811128;28;20112;-74
2020/12/21 07:46:35;;;;;;;131.27;32.53;;;4.70;99.90;;;;;;20812044;28;20030;-74
2020/12/21 07:56:36;;;;;;;113.55;30.70;;;4.70;99.90;;;;;;20826212;28;20403;-75
2020/12/21 08:06:36;;;;;;;106.53;27.90;;;4.80;99.90;;;;;;20827293;28;20029;-75
2020/12/21 08:16:37;;;;;;;102.63;28.70;;;4.80;99.90;;;;;;20826455;28;20546;-75
2020/12/21 08:26:38;;;;;;;63.50;20.17;;;4.80;99.90;;;;;;20789935;28;20030;-75
2020/12/21 08:36:40;;;;;;;65.18;23.98;;;5.20;99.90;;;;;;20743689;28;20033;-75
2020/12/21 08:46:45;;;;;;;76.22;24.50;;;5.70;99.90;;;;;;20742950;28;20133;-74
2020/12/21 08:56:51;;;;;;;86.30;25.05;;;5.40;99.90;;;;;;20742762;28;20065;-75
2020/12/21 09:06:52;;;;;;;97.82;27.50;;;5.20;99.90;;;;;;20742330;28;20037;-75
2020/12/21 09:16:53;;;;;;;102.23;25.87;;;5.20;99.90;;;;;;20741992;28;20476;-75
2020/12/21 09:26:55;;;;;;;103.57;25.33;;;5.20;99.90;;;;;;20712305;28;20056;-75
2020/12/21 09:36:55;;;;;;;101.88;26.98;;;5.30;99.90;;;;;;20698003;28;20767;-75
2020/12/21 09:46:56;;;;;;;98.97;26.73;;;5.20;99.90;;;;;;20659959;28;20185;-74
2020/12/21 09:56:57;;;;;;;92.73;26.07;;;5.30;99.90;;;;;;20692726;28;20393;-74
2020/12/21 10:06:58;;;;;;;105.77;29.60;;;5.40;99.90;;;;;;20708364;28;20026;-74
2020/12/21 10:16:59;;;;;;;93.73;26.87;;;5.40;99.90;;;;;;20689720;28;20030;-74
2020/12/21 10:26:59;;;;;;;90.80;26.13;;;5.50;99.90;;;;;;20751806;28;20052;-75
2020/12/21 10:37:00;;;;;;;89.73;25.43;;;5.50;99.90;;;;;;20834088;28;20033;-74
2020/12/21 10:47:01;;;;;;;84.80;22.77;;;5.40;99.90;;;;;;20742466;28;20026;-74
2020/12/21 10:57:05;;;;;;;93.87;26.13;;;5.60;99.90;;;;;;20693526;28;20026;-75
2020/12/21 11:07:05;;;;;;;85.43;23.27;;;5.40;99.90;;;;;;20747944;28;20038;-75
2020/12/21 11:17:17;;;;;;;66.20;23.93;;;5.40;99.90;;;;;;20748364;28;20583;-74
2020/12/21 11:27:18;;;;;;;67.07;21.63;;;5.50;99.90;;;;;;20783218;28;20545;-78
2020/12/21 11:37:19;;;;;;;63.67;21.93;;;5.40;99.90;;;;;;20811098;28;20033;-78
2020/12/21 11:47:19;;;;;;;63.63;23.00;;;5.70;99.90;;;;;;20826296;28;20320;-79
2020/12/21 11:57:20;;;;;;;61.30;22.00;;;5.90;99.90;;;;;;20842265;28;20038;-78
2020/12/21 12:07:21;;;;;;;62.60;23.10;;;5.90;99.90;;;;;;20778383;28;20041;-79
2020/12/21 12:17:22;;;;;;;60.40;23.00;;;6.00;99.90;;;;;;20755025;28;20076;-78
2020/12/21 12:27:22;;;;;;;42.03;16.93;;;6.00;99.90;;;;;;20749962;28;20033;-79
2020/12/21 12:37:23;;;;;;;67.70;24.67;;;6.00;99.90;;;;;;20733159;28;20040;-78
2020/12/21 12:47:24;;;;;;;42.37;15.33;;;6.00;99.90;;;;;;20748577;28;20472;-78
2020/12/21 12:57:25;;;;;;;54.23;21.70;;;6.10;99.90;;;;;;20731454;28;20448;-79
2020/12/21 13:07:26;;;;;;;60.57;21.43;;;6.10;99.90;;;;;;20748741;28;20044;-78
2020/12/21 13:17:26;;;;;;;52.97;20.30;;;6.10;99.90;;;;;;20747031;28;20033;-78
2020/12/21 13:27:28;;;;;;;54.17;22.40;;;6.20;99.90;;;;;;20702717;28;20038;-78
2020/12/21 13:37:28;;;;;;;64.30;22.33;;;6.20;99.90;;;;;;20681467;28;20045;-78
2020/12/21 13:47:29;;;;;;;57.83;22.30;;;6.30;99.90;;;;;;20691435;28;20038;-79
2020/12/21 13:57:31;;;;;;;57.47;21.00;;;6.40;99.90;;;;;;20687995;28;20030;-78
2020/12/21 14:07:32;;;;;;;71.93;22.58;;;6.30;99.90;;;;;;20683327;28;20089;-79
2020/12/21 14:17:33;;;;;;;67.70;25.03;;;6.20;99.90;;;;;;20727193;28;20033;-79
2020/12/21 14:27:34;;;;;;;74.57;26.92;;;6.20;99.90;;;;;;20634788;28;20033;-79
2020/12/21 14:37:35;;;;;;;60.07;24.60;;;6.20;99.90;;;;;;20665372;28;20117;-80
2020/12/21 14:47:36;;;;;;;63.77;24.47;;;6.30;99.90;;;;;;20635605;28;20100;-78
2020/12/21 14:57:37;;;;;;;58.83;23.73;;;6.20;99.90;;;;;;20634304;28;20533;-78
2020/12/21 15:07:39;;;;;;;40.87;17.93;;;6.20;99.90;;;;;;20634736;28;20022;-77
2020/12/21 15:17:43;;;;;;;53.08;22.85;;;6.10;99.90;;;;;;20617967;28;20092;-78
2020/12/21 15:27:44;;;;;;;50.03;24.23;;;6.00;99.90;;;;;;20672332;28;20049;-78
2020/12/21 15:37:49;;;;;;;40.87;18.53;;;5.90;99.90;;;;;;20647077;28;20763;-77
2020/12/21 15:47:50;;;;;;;63.72;27.58;;;6.10;99.90;;;;;;20645752;28;20108;-77
2020/12/21 15:57:51;;;;;;;72.90;30.05;;;6.00;99.90;;;;;;20699627;28;20045;-76
2020/12/21 16:07:52;;;;;;;71.87;29.30;;;6.00;99.90;;;;;;20724731;28;20507;-75
2020/12/21 16:17:52;;;;;;;71.27;27.40;;;6.00;99.90;;;;;;20708398;28;20156;-76
2020/12/21 16:27:53;;;;;;;67.07;25.10;;;6.10;99.90;;;;;;20724504;28;20772;-76
2020/12/21 16:37:54;;;;;;;66.93;27.23;;;6.10;99.90;;;;;;20705586;28;20132;-76
2020/12/21 16:47:56;;;;;;;69.20;27.30;;;6.10;99.90;;;;;;20723135;28;20554;-76
2020/12/21 16:57:57;;;;;;;64.90;28.17;;;6.10;99.90;;;;;;20723359;28;20685;-75
2020/12/21 17:07:57;;;;;;;68.10;26.60;;;6.10;99.90;;;;;;20713605;28;20057;-77
2020/12/21 17:17:59;;;;;;;57.50;25.90;;;6.10;99.90;;;;;;20704845;28;20007;-77
2020/12/21 17:28:00;;;;;;;50.95;23.23;;;6.20;99.90;;;;;;20721873;28;20484;-78
2020/12/21 17:38:01;;;;;;;54.30;24.10;;;6.20;99.90;;;;;;20705930;28;20049;-77
2020/12/21 17:48:02;;;;;;;47.13;23.03;;;6.20;99.90;;;;;;20721848;28;20030;-78
2020/12/21 17:58:03;;;;;;;80.43;36.17;;;6.30;99.90;;;;;;20739557;28;20044;-78
2020/12/21 18:08:04;;;;;;;50.90;22.63;;;6.30;99.90;;;;;;20760749;28;20532;-78
2020/12/21 18:18:05;;;;;;;46.85;20.27;;;6.30;99.90;;;;;;20771617;28;20042;-79
2020/12/21 18:28:06;;;;;;;55.07;23.67;;;6.40;99.90;;;;;;20757845;28;20409;-77
2020/12/21 18:38:07;;;;;;;48.90;20.53;;;6.30;99.90;;;;;;20755888;28;20068;-79
2020/12/21 18:48:08;;;;;;;63.23;25.40;;;6.40;99.90;;;;;;20755303;28;20042;-78
2020/12/21 18:58:09;;;;;;;60.27;23.97;;;6.30;99.90;;;;;;20738247;28;20041;-79
2020/12/21 19:08:09;;;;;;;57.63;23.30;;;6.30;99.90;;;;;;20735427;28;20052;-79
2020/12/21 19:18:10;;;;;;;55.33;24.03;;;6.30;99.90;;;;;;20755289;28;20496;-79
2020/12/21 19:28:11;;;;;;;58.00;25.17;;;6.30;99.90;;;;;;20748421;28;20896;-79
2020/12/21 19:38:14;;;;;;;46.37;22.20;;;6.40;99.90;;;;;;20756437;28;20030;-79
2020/12/21 19:48:15;;;;;;;55.05;26.45;;;6.30;99.90;;;;;;20758557;28;20060;-79
2020/12/21 19:58:16;;;;;;;49.80;23.50;;;6.30;99.90;;;;;;20746657;28;20030;-78
2020/12/21 20:08:17;;;;;;;42.27;20.53;;;6.30;99.90;;;;;;20731348;28;20026;-79
2020/12/21 20:18:18;;;;;;;;;;;6.30;99.90;;;;;;20772342;28;20049;-79
2020/12/21 20:28:19;;;;;;;42.63;22.53;;;6.40;99.90;;;;;;20756811;28;19914;-78
2020/12/21 20:38:21;;;;;;;38.83;19.10;;;6.30;99.90;;;;;;20778889;28;20289;-79
2020/12/21 20:48:21;;;;;;;48.58;22.63;;;6.40;99.90;;;;;;20736165;28;20034;-77
2020/12/21 20:58:23;;;;;;;38.83;18.17;;;6.40;99.90;;;;;;20744435;28;20087;-77
2020/12/21 21:08:23;;;;;;;32.73;19.43;;;6.40;99.90;;;;;;20771519;28;20112;-77
2020/12/21 21:18:24;;;;;;;45.10;19.20;;;6.40;99.90;;;;;;21598078;22;20525;-81
2020/12/21 21:28:25;;;;;;;37.63;19.33;;;6.40;99.90;;;;;;20996656;22;20378;-75
2020/12/21 21:38:26;;;;;;;51.10;21.43;;;6.50;99.90;;;;;;20836343;28;20170;-75
2020/12/21 21:48:27;;;;;;;39.90;17.87;;;6.50;99.90;;;;;;20846740;28;20044;-76
2020/12/21 21:58:28;;;;;;;43.40;19.33;;;6.60;99.90;;;;;;20853300;28;20057;-75
2020/12/21 22:08:29;;;;;;;33.23;16.23;;;6.50;99.90;;;;;;20862343;28;20036;-75
2020/12/21 22:18:33;;;;;;;57.80;20.60;;;6.60;99.90;;;;;;20852158;28;20037;-75
2020/12/21 22:28:34;;;;;;;37.10;19.00;;;6.60;99.90;;;;;;20870444;28;20024;-76
2020/12/21 22:38:35;;;;;;;38.47;18.13;;;6.60;99.90;;;;;;20872144;28;20056;-75
2020/12/21 22:48:36;;;;;;;36.57;17.17;;;6.60;99.90;;;;;;20876010;28;20055;-76
2020/12/21 22:58:37;;;;;;;33.47;17.63;;;6.70;99.90;;;;;;20861995;28;20798;-76
2020/12/21 23:08:38;;;;;;;48.67;24.83;;;6.70;99.90;;;;;;20830437;28;20032;-76
2020/12/21 23:18:39;;;;;;;40.07;22.23;;;6.80;99.90;;;;;;20831220;28;20065;-76
2020/12/21 23:28:40;;;;;;;37.97;14.30;;;6.70;99.90;;;;;;20830391;28;20029;-76
2020/12/21 23:38:40;;;;;;;23.57;14.23;;;6.80;99.90;;;;;;20829646;28;20059;-76
2020/12/21 23:48:41;;;;;;;30.60;16.43;;;6.80;99.90;;;;;;20828643;28;20368;-76
2020/12/21 23:58:42;;;;;;;19.43;11.00;;;6.70;99.90;;;;;;20828038;28;20079;-77
